Time;durP1;ratioP1;P1;durP2;ratioP2;P2;SDS_P1;SDS_P2;PMS_P1;PMS_P2;Temp;Humidity;BMP_temperature;BMP_pressure;BME280_temperature;BME280_humidity;BME280_pressure;Samples;Min_cycle;Max_cycle;Signal;HPM_P1;HPM_P2
2023/01/20 00:00:45;;;;;;;27.75;13.32;;;-1.00;99.90;;;;;;4895769;29;20456;-50
2023/01/20 00:03:11;;;;;;;23.20;12.15;;;-1.00;99.90;;;;;;4895883;29;20043;-53
2023/01/20 00:05:37;;;;;;;25.52;12.13;;;-1.00;99.90;;;;;;4895541;29;20076;-53
2023/01/20 00:08:03;;;;;;;21.13;11.93;;;-0.90;99.90;;;;;;4895616;29;20477;-50
2023/01/20 00:10:28;;;;;;;21.05;11.07;;;-0.80;99.90;;;;;;4895616;29;20028;-49
2023/01/20 00:12:54;;;;;;;19.63;11.60;;;-0.80;99.90;;;;;;4895710;29;20432;-53
2023/01/20 00:15:20;;;;;;;21.67;11.38;;;-0.80;99.90;;;;;;4895458;29;20043;-51
2023/01/20 00:17:45;;;;;;;24.38;11.02;;;-0.80;99.90;;;;;;4895591;29;20035;-52
2023/01/20 00:20:11;;;;;;;22.13;10.13;;;-0.80;99.90;;;;;;4895474;29;20055;-54
2023/01/20 00:22:41;;;;;;;19.75;10.80;;;-0.80;99.90;;;;;;4908251;29;20069;-49
2023/01/20 00:25:10;;;;;;;22.58;10.52;;;-0.80;99.90;;;;;;4895695;29;20027;-51
2023/01/20 00:27:36;;;;;;;21.65;10.60;;;-0.70;99.90;;;;;;4895508;29;20721;-53
2023/01/20 00:30:01;;;;;;;17.88;9.85;;;-0.70;99.90;;;;;;4896376;29;20080;-50
2023/01/20 00:32:27;;;;;;;17.90;10.73;;;-0.60;99.90;;;;;;4899315;29;20033;-49
2023/01/20 00:34:53;;;;;;;18.23;9.40;;;-0.60;99.90;;;;;;4899188;29;20045;-49
2023/01/20 00:37:18;;;;;;;15.57;9.57;;;-0.50;99.90;;;;;;4899209;29;20453;-51
2023/01/20 00:39:44;;;;;;;21.80;9.55;;;-0.40;99.90;;;;;;4899504;29;20025;-50
2023/01/20 00:42:09;;;;;;;18.75;9.38;;;-0.40;99.90;;;;;;4899262;29;20024;-49
2023/01/20 00:44:35;;;;;;;19.58;9.20;;;-0.40;99.90;;;;;;4899120;29;20076;-55
2023/01/20 00:47:01;;;;;;;19.83;8.90;;;-0.40;99.90;;;;;;4899033;29;20444;-50
2023/01/20 00:49:26;;;;;;;16.95;8.38;;;-0.40;99.90;;;;;;4898878;29;20040;-50
2023/01/20 00:51:52;;;;;;;14.75;8.00;;;-0.40;99.90;;;;;;4911524;29;20036;-53
2023/01/20 00:54:17;;;;;;;15.90;8.00;;;-0.40;99.90;;;;;;4899048;29;20123;-49
2023/01/20 00:56:43;;;;;;;17.15;9.27;;;-0.40;99.90;;;;;;4898808;29;20392;-52
2023/01/20 00:59:09;;;;;;;21.15;9.38;;;-0.40;99.90;;;;;;4899060;29;20021;-52
2023/01/20 01:01:35;;;;;;;18.55;9.18;;;-0.40;99.90;;;;;;4898758;29;20029;-49
2023/01/20 01:04:00;;;;;;;21.92;8.27;;;-0.50;99.90;;;;;;4898909;29;20063;-49
2023/01/20 01:06:26;;;;;;;16.23;9.25;;;-0.50;99.90;;;;;;4898890;29;20063;-50
2023/01/20 01:08:52;;;;;;;16.48;8.15;;;-0.50;99.90;;;;;;4897424;29;20084;-50
2023/01/20 01:11:17;;;;;;;14.75;8.20;;;-0.50;99.90;;;;;;4898745;29;20082;-49
2023/01/20 01:13:43;;;;;;;17.83;7.57;;;-0.50;99.90;;;;;;4898417;29;20039;-49
2023/01/20 01:16:13;;;;;;;16.42;7.85;;;-0.50;99.90;;;;;;4898757;29;20053;-49
2023/01/20 01:18:39;;;;;;;15.10;7.72;;;-0.60;99.90;;;;;;4898524;29;20556;-51
2023/01/20 01:21:11;;;;;;;12.88;7.00;;;-0.60;99.90;;;;;;4900253;29;20055;-49
2023/01/20 01:23:37;;;;;;;19.63;7.38;;;-0.70;99.90;;;;;;4898705;29;20052;-52
2023/01/20 01:26:03;;;;;;;14.65;7.43;;;-0.70;99.90;;;;;;4902804;29;20024;-48
2023/01/20 01:28:28;;;;;;;15.25;7.50;;;-0.70;99.90;;;;;;4906062;29;20064;-53
2023/01/20 01:30:54;;;;;;;16.23;7.55;;;-0.70;99.90;;;;;;4898296;29;20033;-52
2023/01/20 01:33:20;;;;;;;18.20;7.90;;;-0.70;99.90;;;;;;4900019;29;20037;-49
2023/01/20 01:35:58;;;;;;;13.00;6.60;;;-0.70;99.90;;;;;;4900204;29;20095;-52
2023/01/20 01:38:24;;;;;;;14.43;7.15;;;-0.70;99.90;;;;;;4900565;29;20034;-49
2023/01/20 01:40:51;;;;;;;14.23;6.43;;;-0.70;99.90;;;;;;4912361;29;20376;-48
2023/01/20 01:43:28;;;;;;;13.85;6.60;;;-0.80;99.90;;;;;;4916527;29;20047;-48
2023/01/20 01:45:54;;;;;;;14.65;7.35;;;-0.80;99.90;;;;;;4915874;29;20028;-48
2023/01/20 01:48:26;;;;;;;17.80;6.75;;;-0.80;99.90;;;;;;4916838;29;20389;-54
2023/01/20 01:50:57;;;;;;;15.02;6.70;;;-0.80;99.90;;;;;;4916567;29;20032;-49
2023/01/20 01:53:25;;;;;;;11.52;6.47;;;-0.90;99.90;;;;;;4898532;29;20127;-49
2023/01/20 01:55:57;;;;;;;14.88;6.80;;;-0.90;99.90;;;;;;4898052;29;20105;-52
2023/01/20 01:58:42;;;;;;;17.10;7.13;;;-0.90;99.90;;;;;;4866400;29;20064;-49
2023/01/20 02:01:07;;;;;;;;;;;-0.90;99.90;;;;;;4898230;29;20113;-48
2023/01/20 02:03:54;;;;;;;12.77;5.53;;;-0.90;99.90;;;;;;4897635;29;19987;-49
2023/01/20 02:06:23;;;;;;;13.00;6.47;;;-0.80;99.90;;;;;;4897676;29;20032;-50
2023/01/20 02:08:50;;;;;;;18.15;6.47;;;-0.70;99.90;;;;;;4897561;29;20033;-48
2023/01/20 02:11:16;;;;;;;11.65;6.32;;;-0.60;99.90;;;;;;4897927;29;20116;-52
2023/01/20 02:13:42;;;;;;;14.55;5.97;;;-0.60;99.90;;;;;;4897437;29;20140;-50
2023/01/20 02:16:25;;;;;;;12.50;5.68;;;-0.50;99.90;;;;;;4897626;29;20084;-48
2023/01/20 02:19:00;;;;;;;13.63;6.18;;;-0.30;99.90;;;;;;4896306;29;20028;-48
2023/01/20 02:22:01;;;;;;;12.05;5.28;;;-0.30;99.90;;;;;;4898688;29;20024;-48
2023/01/20 02:24:48;;;;;;;13.18;6.20;;;-0.20;99.90;;;;;;4868500;29;20039;-48
2023/01/20 02:27:26;;;;;;;14.07;7.03;;;-0.10;99.90;;;;;;4897303;29;20053;-51
2023/01/20 02:29:54;;;;;;;15.52;5.93;;;-0.10;99.90;;;;;;4897371;29;20028;-50
2023/01/20 02:32:51;;;;;;;12.80;5.40;;;0.00;99.90;;;;;;4897093;29;20484;-48
2023/01/20 02:35:38;;;;;;;13.57;6.10;;;0.10;99.90;;;;;;4897276;29;20040;-49
2023/01/20 02:38:22;;;;;;;16.23;6.43;;;0.10;99.90;;;;;;4897334;29;20059;-51
2023/01/20 02:40:50;;;;;;;11.35;5.50;;;0.10;99.90;;;;;;4897319;29;20108;-48
2023/01/20 02:43:40;;;;;;;9.48;5.82;;;0.10;99.90;;;;;;4897400;29;20159;-53
2023/01/20 02:46:19;;;;;;;14.10;5.35;;;0.20;99.90;;;;;;4896969;29;20052;-48
2023/01/20 02:49:17;;;;;;;13.07;5.28;;;0.20;99.90;;;;;;4897089;29;20061;-48
2023/01/20 02:51:58;;;;;;;8.02;4.72;;;0.30;99.90;;;;;;4909553;29;20028;-49
2023/01/20 02:54:28;;;;;;;12.52;5.25;;;0.40;99.90;;;;;;4896511;29;20480;-52
2023/01/20 02:56:55;;;;;;;;;;;0.30;99.90;;;;;;4897431;29;20029;-49
2023/01/20 02:59:25;;;;;;;12.32;5.22;;;0.40;99.90;;;;;;4903510;29;19960;-49
2023/01/20 03:02:01;;;;;;;11.93;5.40;;;0.40;99.90;;;;;;4897207;29;20029;-52
2023/01/20 03:04:32;;;;;;;13.65;5.28;;;0.40;99.90;;;;;;4899726;29;20424;-54
2023/01/20 03:06:59;;;;;;;13.93;5.18;;;0.50;99.90;;;;;;4915532;29;20693;-50
2023/01/20 03:09:35;;;;;;;14.50;5.15;;;0.60;99.90;;;;;;4915545;29;20028;-57
2023/01/20 03:12:08;;;;;;;10.20;4.72;;;0.60;99.90;;;;;;4915535;29;20028;-49
2023/01/20 03:14:34;;;;;;;11.00;4.45;;;0.60;99.90;;;;;;4915423;29;20040;-49
2023/01/20 03:17:01;;;;;;;8.30;4.70;;;0.60;99.90;;;;;;4913488;29;20031;-48
2023/01/20 03:19:27;;;;;;;11.25;5.63;;;0.60;99.90;;;;;;4903292;29;20032;-54
2023/01/20 03:21:52;;;;;;;14.88;4.63;;;0.70;99.90;;;;;;4915085;29;20099;-50
2023/01/20 03:24:19;;;;;;;10.52;4.55;;;0.70;99.90;;;;;;4915039;29;20036;-49
2023/01/20 03:26:45;;;;;;;9.45;4.68;;;0.70;99.90;;;;;;4898297;29;20036;-49
2023/01/20 03:29:11;;;;;;;7.45;4.22;;;0.70;99.90;;;;;;4914958;29;20086;-50
2023/01/20 03:31:51;;;;;;;8.80;4.15;;;0.80;99.90;;;;;;4915163;29;20111;-48
2023/01/20 03:34:21;;;;;;;8.93;4.28;;;0.70;99.90;;;;;;4914765;29;20036;-48
2023/01/20 03:36:48;;;;;;;9.30;4.18;;;0.80;99.90;;;;;;4915143;29;20029;-48
2023/01/20 03:39:13;;;;;;;8.98;4.00;;;0.80;99.90;;;;;;4914788;29;20060;-50
2023/01/20 03:41:45;;;;;;;8.85;4.00;;;0.80;99.90;;;;;;4915053;29;20023;-48
2023/01/20 03:44:32;;;;;;;9.98;3.72;;;0.80;99.90;;;;;;4913466;29;20046;-51
2023/01/20 03:47:05;;;;;;;8.15;4.25;;;0.80;99.90;;;;;;4911515;29;20035;-51
2023/01/20 03:49:58;;;;;;;6.75;3.97;;;0.80;99.90;;;;;;4910022;29;20036;-48
2023/01/20 03:52:31;;;;;;;9.82;3.83;;;0.80;99.90;;;;;;4914751;29;20029;-51
2023/01/20 03:55:14;;;;;;;8.80;3.97;;;0.80;99.90;;;;;;4914390;29;20075;-50
2023/01/20 03:57:52;;;;;;;7.93;4.00;;;0.80;99.90;;;;;;4914944;29;20024;-50
2023/01/20 04:00:20;;;;;;;9.75;3.80;;;0.80;99.90;;;;;;4914594;29;20502;-50
2023/01/20 04:02:46;;;;;;;7.32;3.42;;;0.70;99.90;;;;;;4914556;29;20032;-53
2023/01/20 04:05:12;;;;;;;6.45;3.15;;;0.70;99.90;;;;;;4914238;29;20028;-53
2023/01/20 04:07:40;;;;;;;6.93;3.03;;;0.60;99.90;;;;;;4914406;29;20024;-50
2023/01/20 04:10:11;;;;;;;6.28;3.38;;;0.50;99.90;;;;;;4914390;29;20127;-49
2023/01/20 04:12:37;;;;;;;9.73;3.25;;;0.50;99.90;;;;;;4913466;29;20032;-49
2023/01/20 04:15:05;;;;;;;7.25;3.30;;;0.40;99.90;;;;;;4914237;29;20036;-51
2023/01/20 04:17:31;;;;;;;7.55;3.50;;;0.30;99.90;;;;;;4914231;29;20373;-50
2023/01/20 04:20:02;;;;;;;6.30;3.13;;;0.30;99.90;;;;;;4909072;29;20043;-52
2023/01/20 04:22:34;;;;;;;5.82;3.08;;;0.30;99.90;;;;;;4896150;29;20424;-48
2023/01/20 04:25:06;;;;;;;6.90;2.95;;;0.30;99.90;;;;;;4907738;29;20468;-48
2023/01/20 04:27:32;;;;;;;9.40;3.40;;;0.30;99.90;;;;;;4901236;29;20484;-52
2023/01/20 04:29:57;;;;;;;11.15;3.30;;;0.30;99.90;;;;;;4914344;29;20083;-51
2023/01/20 04:32:23;;;;;;;6.47;3.38;;;0.30;99.90;;;;;;4914092;29;20035;-48
2023/01/20 04:34:52;;;;;;;9.73;3.15;;;0.30;99.90;;;;;;4914299;29;20457;-49
2023/01/20 04:37:18;;;;;;;7.40;2.75;;;0.20;99.90;;;;;;4914041;29;20487;-48
2023/01/20 04:39:43;;;;;;;7.75;3.15;;;0.20;99.90;;;;;;4914314;29;20091;-49
2023/01/20 04:42:10;;;;;;;7.82;3.15;;;0.20;99.90;;;;;;4914085;29;20032;-48
2023/01/20 04:44:36;;;;;;;7.60;2.75;;;0.30;99.90;;;;;;4914285;29;20032;-48
2023/01/20 04:47:01;;;;;;;8.65;3.00;;;0.20;99.90;;;;;;4913332;29;20032;-48
2023/01/20 04:49:27;;;;;;;5.40;2.97;;;0.20;99.90;;;;;;4900764;29;20535;-48
2023/01/20 04:51:53;;;;;;;8.25;3.03;;;0.10;99.90;;;;;;4911826;29;20035;-48
2023/01/20 04:54:19;;;;;;;9.10;3.00;;;0.00;99.90;;;;;;4898743;29;20499;-48
2023/01/20 04:56:46;;;;;;;11.90;3.13;;;0.00;99.90;;;;;;4906054;29;20028;-54
2023/01/20 04:59:12;;;;;;;7.40;3.38;;;-0.10;99.90;;;;;;4909507;29;20486;-55
2023/01/20 05:01:37;;;;;;;7.15;3.25;;;-0.10;99.90;;;;;;4914129;29;20030;-49
2023/01/20 05:04:03;;;;;;;9.40;3.25;;;-0.20;99.90;;;;;;4914365;29;20028;-55
2023/01/20 05:06:29;;;;;;;9.00;3.05;;;-0.20;99.90;;;;;;4913835;29;20028;-50
2023/01/20 05:08:54;;;;;;;7.65;3.50;;;-0.20;99.90;;;;;;4914073;29;20032;-49
2023/01/20 05:11:20;;;;;;;12.30;3.47;;;-0.30;99.90;;;;;;4904046;29;20086;-50
2023/01/20 05:13:45;;;;;;;7.82;3.22;;;-0.30;99.90;;;;;;4911468;29;20028;-50
2023/01/20 05:16:11;;;;;;;7.22;3.40;;;-0.40;99.90;;;;;;4905442;29;20759;-50
2023/01/20 05:18:37;;;;;;;8.43;3.53;;;-0.40;99.90;;;;;;4912817;29;20617;-50
2023/01/20 05:21:03;;;;;;;9.85;3.33;;;-0.40;99.90;;;;;;4909160;29;20400;-50
2023/01/20 05:23:29;;;;;;;10.77;3.13;;;-0.40;99.90;;;;;;4911150;29;20079;-53
2023/01/20 05:25:55;;;;;;;10.18;3.50;;;-0.50;99.90;;;;;;4908096;29;20462;-49
2023/01/20 05:28:20;;;;;;;9.60;3.08;;;-0.50;99.90;;;;;;4904504;29;20362;-48
2023/01/20 05:30:47;;;;;;;8.48;2.60;;;-0.50;99.90;;;;;;4899051;29;20035;-55
2023/01/20 05:33:13;;;;;;;6.85;3.35;;;-0.60;99.90;;;;;;4901816;29;20048;-50
2023/01/20 05:35:39;;;;;;;9.50;3.10;;;-0.60;99.90;;;;;;4911724;29;20040;-49
2023/01/20 05:38:05;;;;;;;5.38;2.65;;;-0.60;99.90;;;;;;4906184;29;20111;-52
2023/01/20 05:40:31;;;;;;;8.40;2.92;;;-0.60;99.90;;;;;;4917099;29;20496;-48
2023/01/20 05:43:00;;;;;;;9.55;2.78;;;-0.70;99.90;;;;;;4916796;29;20024;-50
2023/01/20 05:45:26;;;;;;;9.95;3.28;;;-0.80;99.90;;;;;;4916833;29;20079;-52
2023/01/20 05:47:56;;;;;;;5.65;2.72;;;-0.70;99.90;;;;;;4903386;29;20044;-51
2023/01/20 05:50:23;;;;;;;6.85;2.55;;;-0.80;99.90;;;;;;4909946;29;20040;-51
2023/01/20 05:52:49;;;;;;;11.45;3.22;;;-0.80;99.90;;;;;;4916712;29;20388;-55
2023/01/20 05:55:15;;;;;;;8.88;2.85;;;-0.80;99.90;;;;;;4916633;29;20028;-49
2023/01/20 05:57:40;;;;;;;7.82;3.00;;;-0.80;99.90;;;;;;4916642;29;20440;-53
2023/01/20 06:00:07;;;;;;;8.02;3.30;;;-0.90;99.90;;;;;;4916542;29;20040;-51
2023/01/20 06:02:33;;;;;;;5.43;2.80;;;-0.90;99.90;;;;;;4902189;29;20028;-50
2023/01/20 06:05:01;;;;;;;6.53;2.70;;;-1.00;99.90;;;;;;4910614;29;20043;-48
2023/01/20 06:07:28;;;;;;;6.15;2.72;;;-0.90;99.90;;;;;;4903289;29;20024;-51
2023/01/20 06:09:54;;;;;;;9.70;3.30;;;-1.00;99.90;;;;;;4916138;29;20024;-51
2023/01/20 06:12:20;;;;;;;5.88;2.60;;;-1.00;99.90;;;;;;4916302;29;20024;-51
2023/01/20 06:14:45;;;;;;;6.82;3.38;;;-1.10;99.90;;;;;;4914836;29;20111;-49
2023/01/20 06:17:11;;;;;;;8.40;3.47;;;-1.20;99.90;;;;;;4910461;29;20669;-54
2023/01/20 06:19:37;;;;;;;6.97;3.22;;;-1.20;99.90;;;;;;4897777;29;20085;-49
2023/01/20 06:22:03;;;;;;;8.05;3.00;;;-1.30;99.90;;;;;;4898421;29;20476;-50
2023/01/20 06:24:29;;;;;;;7.63;2.67;;;-1.20;99.90;;;;;;4900201;29;20543;-48
2023/01/20 06:26:54;;;;;;;7.15;2.53;;;-1.20;99.90;;;;;;4911426;29;20108;-48
2023/01/20 06:29:20;;;;;;;5.05;2.45;;;-1.20;99.90;;;;;;4916155;29;20043;-50
2023/01/20 06:31:46;;;;;;;6.40;2.70;;;-1.10;99.90;;;;;;4900491;29;20404;-50
2023/01/20 06:34:12;;;;;;;14.65;3.08;;;-1.00;99.90;;;;;;4906022;29;20036;-49
2023/01/20 06:36:38;;;;;;;8.38;2.97;;;-0.90;99.90;;;;;;4913885;29;20020;-48
2023/01/20 06:39:04;;;;;;;7.25;2.63;;;-0.80;99.90;;;;;;4916133;29;20035;-49
2023/01/20 06:41:29;;;;;;;6.43;2.72;;;-0.80;99.90;;;;;;4900008;29;20062;-50
2023/01/20 06:43:55;;;;;;;6.10;3.35;;;-0.80;99.90;;;;;;4897016;29;20115;-51
2023/01/20 06:46:21;;;;;;;6.85;2.95;;;-0.80;99.90;;;;;;4896797;29;20035;-49
2023/01/20 06:48:47;;;;;;;9.35;3.13;;;-0.90;99.90;;;;;;4897043;29;20399;-49
2023/01/20 06:51:19;;;;;;;5.50;2.63;;;-0.90;99.90;;;;;;4897134;29;20473;-51
2023/01/20 06:53:46;;;;;;;9.05;2.85;;;-0.90;99.90;;;;;;4896862;29;20017;-48
2023/01/20 06:56:12;;;;;;;9.07;3.03;;;-1.00;99.90;;;;;;4895704;29;20039;-53
2023/01/20 06:58:38;;;;;;;6.38;2.88;;;-0.90;99.90;;;;;;4896994;29;20028;-50
2023/01/20 07:01:22;;;;;;;10.05;3.35;;;-1.00;99.90;;;;;;4896989;29;20028;-48
2023/01/20 07:03:48;;;;;;;6.05;2.85;;;-1.00;99.90;;;;;;4896610;29;20547;-52
2023/01/20 07:06:28;;;;;;;8.15;2.70;;;-1.10;99.90;;;;;;4896742;29;20104;-52
2023/01/20 07:08:54;;;;;;;12.52;3.78;;;-1.10;99.90;;;;;;4896836;29;20036;-56
2023/01/20 07:11:20;;;;;;;6.78;3.00;;;-1.20;99.90;;;;;;4909183;29;20024;-47
2023/01/20 07:13:45;;;;;;;7.15;3.45;;;-1.20;99.90;;;;;;4915480;29;20488;-50
2023/01/20 07:16:11;;;;;;;10.85;3.55;;;-1.20;99.90;;;;;;4915511;29;20036;-49
2023/01/20 07:18:37;;;;;;;8.73;3.47;;;-1.20;99.90;;;;;;4915251;29;20360;-53
2023/01/20 07:21:03;;;;;;;8.90;3.60;;;-1.20;99.90;;;;;;4915155;29;20361;-48
2023/01/20 07:23:32;;;;;;;10.95;3.90;;;-1.30;99.90;;;;;;4915408;29;20051;-48
2023/01/20 07:26:06;;;;;;;7.78;3.42;;;-1.30;99.90;;;;;;4915059;29;20032;-48
2023/01/20 07:28:32;;;;;;;6.97;4.18;;;-1.40;99.90;;;;;;4914643;29;20052;-52
2023/01/20 07:31:06;;;;;;;7.80;3.40;;;-1.40;99.90;;;;;;4914936;29;20040;-49
2023/01/20 07:33:32;;;;;;;7.15;3.55;;;-1.40;99.90;;;;;;4914902;29;20055;-49
2023/01/20 07:35:59;;;;;;;8.18;3.90;;;-1.40;99.90;;;;;;4909326;29;20092;-53
2023/01/20 07:38:24;;;;;;;11.70;4.13;;;-1.40;99.90;;;;;;4907269;29;20095;-51
2023/01/20 07:40:50;;;;;;;9.85;4.30;;;-1.30;99.90;;;;;;4914750;29;20484;-49
2023/01/20 07:43:16;;;;;;;10.70;5.03;;;-1.20;99.90;;;;;;4914986;29;20040;-49
2023/01/20 07:45:41;;;;;;;12.43;3.95;;;-1.20;99.90;;;;;;4911284;29;20501;-51
2023/01/20 07:48:07;;;;;;;8.45;3.75;;;-1.20;99.90;;;;;;4914613;29;20504;-50
2023/01/20 07:50:34;;;;;;;10.60;3.97;;;-1.20;99.90;;;;;;4910449;29;20028;-49
2023/01/20 07:53:00;;;;;;;9.32;4.20;;;-1.10;99.90;;;;;;4901531;29;20028;-49
2023/01/20 07:55:26;;;;;;;10.07;3.45;;;-1.10;99.90;;;;;;4914563;29;20119;-49
2023/01/20 07:57:51;;;;;;;11.25;4.25;;;-1.20;99.90;;;;;;4913180;29;20071;-48
2023/01/20 08:00:18;;;;;;;8.30;3.65;;;-1.20;99.90;;;;;;4914695;29;20024;-55
2023/01/20 08:02:44;;;;;;;11.27;5.03;;;-1.10;99.90;;;;;;4914515;29;20043;-49
2023/01/20 08:05:10;;;;;;;11.25;5.28;;;-1.10;99.90;;;;;;4914875;29;20103;-49
2023/01/20 08:07:35;;;;;;;10.00;4.43;;;-1.10;99.90;;;;;;4913744;29;20520;-49
2023/01/20 08:10:01;;;;;;;20.52;5.43;;;-1.10;99.90;;;;;;4910840;29;20032;-51
2023/01/20 08:12:28;;;;;;;11.43;4.00;;;-1.00;99.90;;;;;;4910171;29;20020;-47
2023/01/20 08:14:54;;;;;;;11.43;4.00;;;-1.00;99.90;;;;;;4907576;29;20408;-52
2023/01/20 08:17:19;;;;;;;7.63;3.53;;;-0.90;99.90;;;;;;4914035;29;20484;-48
2023/01/20 08:19:45;;;;;;;10.80;4.00;;;-0.90;99.90;;;;;;4914478;29;20081;-52
2023/01/20 08:22:10;;;;;;;7.80;4.28;;;-0.90;99.90;;;;;;4914364;29;20056;-50
2023/01/20 08:24:36;;;;;;;8.43;4.35;;;-0.80;99.90;;;;;;4914415;29;20410;-51
2023/01/20 08:27:01;;;;;;;9.75;4.45;;;-0.80;99.90;;;;;;4896600;29;20024;-53
2023/01/20 08:29:28;;;;;;;10.85;3.72;;;-0.70;99.90;;;;;;4896950;29;20040;-56
2023/01/20 08:31:54;;;;;;;6.63;3.53;;;-0.70;99.90;;;;;;4903057;29;20449;-48
2023/01/20 08:34:20;;;;;;;11.05;3.70;;;-0.60;99.90;;;;;;4899520;29;20104;-48
2023/01/20 08:36:48;;;;;;;6.88;3.50;;;-0.50;99.90;;;;;;4907374;29;20028;-51
2023/01/20 08:39:17;;;;;;;6.90;3.53;;;-0.40;99.90;;;;;;4898709;29;20111;-51
2023/01/20 08:41:44;;;;;;;8.20;3.83;;;-0.20;99.90;;;;;;4900650;29;20032;-49
2023/01/20 08:44:10;;;;;;;6.30;2.97;;;0.60;99.90;;;;;;4910691;29;20013;-50
2023/01/20 08:46:37;;;;;;;10.93;2.60;;;1.60;99.90;;;;;;4895387;29;20028;-48
2023/01/20 08:49:08;;;;;;;6.60;2.20;;;2.50;99.90;;;;;;4895227;29;20136;-49
2023/01/20 08:51:34;;;;;;;8.07;2.50;;;3.30;99.90;;;;;;4896905;29;20035;-49
2023/01/20 08:54:00;;;;;;;7.00;1.85;;;4.20;99.90;;;;;;4898941;29;20045;-49
2023/01/20 08:56:27;;;;;;;6.53;2.45;;;5.10;99.90;;;;;;4899048;29;20033;-49
2023/01/20 08:58:54;;;;;;;6.78;2.42;;;5.70;99.90;;;;;;4901338;29;20964;-49
2023/01/20 09:01:22;;;;;;;6.13;1.90;;;6.20;99.90;;;;;;4904540;29;20087;-49
2023/01/20 09:03:48;;;;;;;7.82;2.50;;;6.60;99.40;;;;;;4916858;29;20023;-49
2023/01/20 09:06:14;;;;;;;6.38;2.38;;;7.30;97.70;;;;;;4917656;29;20028;-49
2023/01/20 09:08:40;;;;;;;6.13;2.63;;;8.10;97.50;;;;;;4917778;29;20393;-50
2023/01/20 09:11:15;;;;;;;5.15;1.95;;;9.10;94.10;;;;;;4917783;29;20029;-49
2023/01/20 09:13:40;;;;;;;5.80;2.30;;;9.70;92.20;;;;;;4917401;29;20024;-49
2023/01/20 09:16:07;;;;;;;4.70;2.20;;;10.20;86.60;;;;;;4917777;29;20140;-49
2023/01/20 09:18:34;;;;;;;5.18;2.15;;;10.30;83.60;;;;;;4917381;29;20156;-50
2023/01/20 09:21:00;;;;;;;6.10;2.85;;;9.40;83.80;;;;;;4917556;29;20499;-50
2023/01/20 09:23:27;;;;;;;5.03;2.45;;;8.00;85.80;;;;;;4916938;29;20095;-49
2023/01/20 09:25:53;;;;;;;7.55;2.75;;;6.80;91.00;;;;;;4910838;29;20484;-52
2023/01/20 09:28:19;;;;;;;9.35;3.28;;;6.20;92.40;;;;;;4917061;29;20485;-56
2023/01/20 09:30:45;;;;;;;7.15;3.83;;;5.50;94.00;;;;;;4917154;29;20043;-56
2023/01/20 09:33:11;;;;;;;7.32;2.47;;;4.80;95.50;;;;;;4916084;29;20031;-52
2023/01/20 09:35:38;;;;;;;7.88;2.70;;;4.40;97.00;;;;;;4917249;29;20032;-50
2023/01/20 09:43:55;;;;;;;8.98;3.22;;;3.70;98.90;;;;;;4916465;29;20548;-50
2023/01/20 09:47:21;;;;;;;7.30;2.75;;;3.40;99.70;;;;;;4914010;29;20047;-52
2023/01/20 09:53:25;;;;;;;5.32;2.85;;;3.30;99.90;;;;;;4906879;29;20072;-49
2023/01/20 09:55:59;;;;;;;7.40;3.08;;;3.30;99.90;;;;;;4873795;29;20140;-48
2023/01/20 09:58:37;;;;;;;5.22;2.67;;;3.30;99.90;;;;;;4916294;29;20519;-51
2023/01/20 10:01:09;;;;;;;13.00;3.55;;;3.30;99.90;;;;;;4916593;29;20543;-54
2023/01/20 10:04:05;;;;;;;7.18;2.80;;;4.20;99.90;;;;;;4916130;29;20023;-49
2023/01/20 10:06:38;;;;;;;6.18;2.95;;;6.70;99.90;;;;;;4916365;29;20035;-49
2023/01/20 10:09:13;;;;;;;5.55;2.88;;;9.60;97.30;;;;;;4916797;29;20468;-55
2023/01/20 10:11:42;;;;;;;6.57;2.80;;;11.50;90.70;;;;;;4916296;29;20047;-49
2023/01/20 10:14:33;;;;;;;12.65;4.32;;;13.60;83.00;;;;;;4915714;29;20028;-46
2023/01/20 10:17:18;;;;;;;6.45;2.72;;;15.30;75.50;;;;;;4912882;29;20036;-51
2023/01/20 10:20:31;;;;;;;6.10;2.03;;;16.20;65.50;;;;;;4895878;29;20068;-50
2023/01/20 10:23:09;;;;;;;6.07;2.10;;;16.70;62.30;;;;;;4842852;29;20045;-51
2023/01/20 10:25:45;;;;;;;8.17;2.33;;;16.70;60.40;;;;;;4890754;29;20571;-47
2023/01/20 10:28:14;;;;;;;5.38;2.47;;;16.40;59.70;;;;;;4895566;29;20037;-47
2023/01/20 10:30:42;;;;;;;4.22;1.88;;;16.80;61.20;;;;;;4897168;29;20119;-46
2023/01/20 10:33:30;;;;;;;7.50;2.30;;;17.30;59.30;;;;;;4897555;29;20063;-49
2023/01/20 10:35:58;;;;;;;6.75;2.58;;;17.60;58.70;;;;;;4897319;29;20557;-49
2023/01/20 10:38:28;;;;;;;6.68;2.33;;;18.60;57.80;;;;;;4897245;29;20425;-45
2023/01/20 10:41:02;;;;;;;7.82;2.70;;;19.30;55.10;;;;;;4897225;29;20104;-46
2023/01/20 10:43:29;;;;;;;6.10;2.30;;;19.90;54.00;;;;;;4897139;29;20045;-49
2023/01/20 10:46:10;;;;;;;6.50;2.80;;;19.30;53.20;;;;;;4897236;29;20028;-48
2023/01/20 10:48:49;;;;;;;6.93;2.65;;;19.30;52.50;;;;;;4896896;29;20104;-45
2023/01/20 10:51:29;;;;;;;6.38;2.72;;;19.00;54.10;;;;;;4897110;29;20025;-49
2023/01/20 10:54:00;;;;;;;7.22;2.85;;;19.00;53.00;;;;;;4897236;29;20084;-47
2023/01/20 10:56:33;;;;;;;6.95;2.40;;;19.90;53.00;;;;;;4897137;29;20111;-47
2023/01/20 10:59:06;;;;;;;7.93;3.10;;;20.70;50.60;;;;;;4897043;29;20044;-53
2023/01/20 11:01:32;;;;;;;9.32;3.80;;;20.70;50.30;;;;;;4896988;29;20091;-50
2023/01/20 11:03:58;;;;;;;7.38;3.28;;;21.30;50.30;;;;;;4896595;29;20017;-47
2023/01/20 11:06:25;;;;;;;5.65;2.70;;;20.90;50.50;;;;;;4896911;29;20034;-46
2023/01/20 11:08:52;;;;;;;6.70;2.55;;;21.00;50.50;;;;;;4915648;29;20548;-46
2023/01/20 11:11:24;;;;;;;8.40;2.85;;;21.30;48.00;;;;;;4915736;29;20032;-46
2023/01/20 11:13:51;;;;;;;8.48;2.90;;;21.30;50.00;;;;;;4913256;29;20115;-50
2023/01/20 11:16:27;;;;;;;7.82;3.10;;;21.60;49.40;;;;;;4915219;29;20523;-47
2023/01/20 11:18:59;;;;;;;7.13;2.63;;;22.00;47.00;;;;;;4915525;29;20059;-47
2023/01/20 11:21:27;;;;;;;6.50;2.35;;;22.40;47.90;;;;;;4915700;29;20028;-47
2023/01/20 11:23:55;;;;;;;7.32;2.25;;;21.70;46.60;;;;;;4915278;29;20028;-48
2023/01/20 11:26:28;;;;;;;7.30;2.35;;;20.60;48.60;;;;;;4915371;29;20040;-49
2023/01/20 11:28:59;;;;;;;11.23;3.00;;;21.30;48.20;;;;;;4915156;29;20040;-47
2023/01/20 11:31:48;;;;;;;5.18;2.08;;;21.20;49.00;;;;;;4915598;29;20032;-47
2023/01/20 11:34:27;;;;;;;5.47;2.03;;;21.70;46.10;;;;;;4914877;29;20024;-47
2023/01/20 11:37:05;;;;;;;;;;;21.90;48.10;;;;;;4915610;29;20496;-48
2023/01/20 11:39:43;;;;;;;7.53;2.20;;;21.70;47.30;;;;;;4902786;29;19915;-50
2023/01/20 11:42:13;;;;;;;7.28;2.83;;;21.10;47.20;;;;;;4915229;29;20059;-48
2023/01/20 11:44:54;;;;;;;9.43;3.20;;;20.80;48.30;;;;;;4915148;29;20123;-47
2023/01/20 11:47:26;;;;;;;6.80;1.92;;;19.60;49.90;;;;;;4914861;29;20056;-50
2023/01/20 11:50:25;;;;;;;6.43;2.03;;;19.90;49.70;;;;;;4915093;29;20119;-47
2023/01/20 11:52:51;;;;;;;7.22;2.35;;;19.90;49.30;;;;;;4915035;29;20020;-48
2023/01/20 11:55:26;;;;;;;5.60;1.90;;;21.10;49.80;;;;;;4914896;29;20518;-49
2023/01/20 11:58:01;;;;;;;7.03;2.00;;;21.50;47.20;;;;;;4914744;29;20084;-50
2023/01/20 12:00:32;;;;;;;5.63;2.00;;;22.10;44.70;;;;;;4914773;29;20122;-55
2023/01/20 12:03:20;;;;;;;7.20;1.80;;;22.30;47.20;;;;;;4914611;29;20032;-48
2023/01/20 12:05:58;;;;;;;6.78;2.03;;;22.00;45.30;;;;;;4913563;29;20130;-47
2023/01/20 12:08:55;;;;;;;7.15;2.30;;;20.70;47.30;;;;;;4911613;29;20028;-47
2023/01/20 12:11:31;;;;;;;5.88;2.03;;;21.70;46.90;;;;;;4894804;29;20040;-49
2023/01/20 12:14:19;;;;;;;6.85;2.25;;;21.90;46.80;;;;;;4914679;29;20032;-52
2023/01/20 12:17:16;;;;;;;8.50;2.30;;;22.30;44.90;;;;;;4914467;29;20067;-48
2023/01/20 12:20:04;;;;;;;6.47;2.33;;;20.30;45.50;;;;;;4914324;29;20028;-49
2023/01/20 12:22:50;;;;;;;17.37;7.83;;;20.00;48.20;;;;;;4902195;29;20047;-47
2023/01/20 12:25:19;;;;;;;24.73;12.80;;;20.20;48.20;;;;;;4913964;29;20476;-49
2023/01/20 12:28:12;;;;;;;9.17;4.83;;;20.20;48.70;;;;;;4914702;29;20031;-49
2023/01/20 12:31:10;;;;;;;14.32;6.85;;;20.10;47.60;;;;;;4913157;29;20017;-47
2023/01/20 12:33:48;;;;;;;8.33;4.33;;;19.00;49.40;;;;;;4879939;29;20369;-49
2023/01/20 12:36:41;;;;;;;11.60;4.72;;;18.70;51.00;;;;;;4912019;29;20051;-50
2023/01/20 12:39:31;;;;;;;9.95;5.15;;;18.50;51.80;;;;;;4907192;29;20033;-50
2023/01/20 12:42:09;;;;;;;9.45;4.65;;;19.80;50.10;;;;;;4896767;29;20068;-47
2023/01/20 12:45:08;;;;;;;5.68;2.42;;;19.70;49.00;;;;;;4914192;29;20031;-55
2023/01/20 12:48:01;;;;;;;6.13;2.42;;;19.10;48.90;;;;;;4913748;29;20124;-47
2023/01/20 12:50:50;;;;;;;6.28;2.08;;;18.10;52.50;;;;;;4913599;29;20118;-47
2023/01/20 12:53:40;;;;;;;6.13;2.20;;;19.00;50.60;;;;;;4896483;29;20037;-50
2023/01/20 12:56:11;;;;;;;;;;;20.50;48.00;;;;;;4898554;29;20123;-51
2023/01/20 12:58:52;;;;;;;4.78;1.75;;;20.80;47.00;;;;;;4905697;29;19911;-49
2023/01/20 13:01:35;;;;;;;8.57;3.05;;;21.20;47.10;;;;;;4903010;29;20025;-49
2023/01/20 13:04:39;;;;;;;6.20;2.20;;;20.90;48.10;;;;;;4906981;29;20040;-52
2023/01/20 13:07:23;;;;;;;6.25;2.58;;;20.50;47.80;;;;;;4910612;29;20034;-50
2023/01/20 13:10:21;;;;;;;6.63;2.72;;;20.80;46.90;;;;;;4912818;29;20516;-55
2023/01/20 13:13:16;;;;;;;5.35;2.08;;;21.00;47.80;;;;;;4913971;29;20495;-62
2023/01/20 13:15:50;;;;;;;26.30;14.07;;;19.90;48.90;;;;;;4914163;29;20204;-61